sensor_id;sensor_type;location;lat;lon;timestamp;P1;durP1;ratioP1;P2;durP2;ratioP2
25129;SDS011;13308;50.860;13.664;2023-04-24T04:33:13;1.20;;;1.10;;
25129;SDS011;13308;50.860;13.664;2023-04-24T04:35:40;0.98;;;0.90;;
25129;SDS011;13308;50.860;13.664;2023-04-24T04:38:06;1.35;;;1.17;;
25129;SDS011;13308;50.860;13.664;2023-04-24T04:40:46;1.35;;;1.15;;
25129;SDS011;13308;50.860;13.664;2023-04-24T04:43:13;1.65;;;1.05;;
25129;SDS011;13308;50.860;13.664;2023-04-24T04:45:46;1.25;;;1.02;;
25129;SDS011;13308;50.860;13.664;2023-04-24T04:48:45;1.63;;;1.20;;
25129;SDS011;13308;50.860;13.664;2023-04-24T04:51:10;1.55;;;1.45;;
25129;SDS011;13308;50.860;13.664;2023-04-24T04:53:36;0.90;;;0.90;;
25129;SDS011;13308;50.860;13.664;2023-04-24T04:56:02;0.93;;;0.93;;
25129;SDS011;13308;50.860;13.664;2023-04-24T04:58:34;1.35;;;1.10;;
25129;SDS011;13308;50.860;13.664;2023-04-24T05:01:01;1.27;;;1.17;;
25129;SDS011;13308;50.860;13.664;2023-04-24T05:03:32;0.95;;;0.90;;
25129;SDS011;13308;50.860;13.664;2023-04-24T05:06:04;1.67;;;1.58;;
25129;SDS011;13308;50.860;13.664;2023-04-24T05:08:33;1.02;;;0.93;;
25129;SDS011;13308;50.860;13.664;2023-04-24T05:10:58;2.38;;;2.08;;
25129;SDS011;13308;50.860;13.664;2023-04-24T05:13:26;3.03;;;1.48;;
25129;SDS011;13308;50.860;13.664;2023-04-24T05:15:52;2.42;;;1.75;;
25129;SDS011;13308;50.860;13.664;2023-04-24T05:18:17;1.23;;;1.13;;
25129;SDS011;13308;50.860;13.664;2023-04-24T05:20:43;2.67;;;2.38;;
25129;SDS011;13308;50.860;13.664;2023-04-24T05:23:09;1.70;;;1.60;;
25129;SDS011;13308;50.860;13.664;2023-04-24T05:25:37;1.33;;;1.23;;
25129;SDS011;13308;50.860;13.664;2023-04-24T05:28:07;1.30;;;1.20;;
25129;SDS011;13308;50.860;13.664;2023-04-24T05:30:32;1.33;;;1.10;;
25129;SDS011;13308;50.860;13.664;2023-04-24T05:32:58;1.10;;;0.93;;
25129;SDS011;13308;50.860;13.664;2023-04-24T05:35:23;1.83;;;0.95;;
25129;SDS011;13308;50.860;13.664;2023-04-24T05:37:49;1.67;;;1.10;;
25129;SDS011;13308;50.860;13.664;2023-04-24T05:40:18;0.80;;;0.80;;
25129;SDS011;13308;50.860;13.664;2023-04-24T05:42:43;2.17;;;0.98;;
25129;SDS011;13308;50.860;13.664;2023-04-24T05:45:09;1.40;;;1.10;;
25129;SDS011;13308;50.860;13.664;2023-04-24T05:47:39;1.73;;;0.80;;
25129;SDS011;13308;50.860;13.664;2023-04-24T05:50:05;0.93;;;0.90;;
25129;SDS011;13308;50.860;13.664;2023-04-24T05:52:31;1.13;;;0.93;;
25129;SDS011;13308;50.860;13.664;2023-04-24T05:54:56;0.63;;;0.60;;
25129;SDS011;13308;50.860;13.664;2023-04-24T05:57:24;2.42;;;1.00;;
25129;SDS011;13308;50.860;13.664;2023-04-24T05:59:58;1.90;;;1.10;;
25129;SDS011;13308;50.860;13.664;2023-04-24T06:02:24;1.98;;;0.73;;
25129;SDS011;13308;50.860;13.664;2023-04-24T06:04:50;1.10;;;1.00;;
25129;SDS011;13308;50.860;13.664;2023-04-24T06:07:16;1.15;;;0.98;;
25129;SDS011;13308;50.860;13.664;2023-04-24T06:09:42;1.38;;;1.10;;
25129;SDS011;13308;50.860;13.664;2023-04-24T06:12:08;3.15;;;0.90;;
25129;SDS011;13308;50.860;13.664;2023-04-24T06:14:48;2.13;;;1.00;;
25129;SDS011;13308;50.860;13.664;2023-04-24T06:17:20;2.13;;;0.90;;
25129;SDS011;13308;50.860;13.664;2023-04-24T06:19:46;0.85;;;0.70;;
25129;SDS011;13308;50.860;13.664;2023-04-24T06:22:12;1.10;;;0.90;;
25129;SDS011;13308;50.860;13.664;2023-04-24T06:24:39;0.80;;;0.80;;
25129;SDS011;13308;50.860;13.664;2023-04-24T06:27:05;2.25;;;0.70;;
25129;SDS011;13308;50.860;13.664;2023-04-24T06:29:30;0.73;;;0.73;;
25129;SDS011;13308;50.860;13.664;2023-04-24T06:31:55;0.98;;;0.93;;
25129;SDS011;13308;50.860;13.664;2023-04-24T06:34:21;1.42;;;0.80;;
25129;SDS011;13308;50.860;13.664;2023-04-24T06:36:46;0.80;;;0.80;;
25129;SDS011;13308;50.860;13.664;2023-04-24T06:39:12;0.60;;;0.60;;
25129;SDS011;13308;50.860;13.664;2023-04-24T06:41:37;0.68;;;0.60;;
25129;SDS011;13308;50.860;13.664;2023-04-24T06:44:02;1.85;;;0.80;;
25129;SDS011;13308;50.860;13.664;2023-04-24T06:46:28;0.55;;;0.55;;
25129;SDS011;13308;50.860;13.664;2023-04-24T06:48:53;0.70;;;0.70;;
25129;SDS011;13308;50.860;13.664;2023-04-24T06:51:25;1.00;;;0.70;;
25129;SDS011;13308;50.860;13.664;2023-04-24T06:53:52;0.73;;;0.73;;
25129;SDS011;13308;50.860;13.664;2023-04-24T06:56:18;0.70;;;0.70;;
25129;SDS011;13308;50.860;13.664;2023-04-24T06:58:44;0.90;;;0.70;;
25129;SDS011;13308;50.860;13.664;2023-04-24T07:01:10;2.40;;;0.93;;
25129;SDS011;13308;50.860;13.664;2023-04-24T07:03:35;1.38;;;0.80;;
25129;SDS011;13308;50.860;13.664;2023-04-24T07:06:01;0.60;;;0.60;;
25129;SDS011;13308;50.860;13.664;2023-04-24T07:08:28;0.95;;;0.60;;
25129;SDS011;13308;50.860;13.664;2023-04-24T07:10:55;0.70;;;0.70;;
25129;SDS011;13308;50.860;13.664;2023-04-24T07:13:20;0.50;;;0.50;;
25129;SDS011;13308;50.860;13.664;2023-04-24T07:15:46;0.90;;;0.70;;
25129;SDS011;13308;50.860;13.664;2023-04-24T07:18:13;0.70;;;0.70;;
25129;SDS011;13308;50.860;13.664;2023-04-24T07:20:39;0.80;;;0.70;;
25129;SDS011;13308;50.860;13.664;2023-04-24T07:23:04;0.60;;;0.60;;
25129;SDS011;13308;50.860;13.664;2023-04-24T07:25:29;1.05;;;0.95;;
25129;SDS011;13308;50.860;13.664;2023-04-24T07:27:56;0.70;;;0.70;;
25129;SDS011;13308;50.860;13.664;2023-04-24T07:30:21;0.80;;;0.80;;
25129;SDS011;13308;50.860;13.664;2023-04-24T07:32:47;0.93;;;0.75;;
25129;SDS011;13308;50.860;13.664;2023-04-24T07:35:12;1.10;;;0.60;;
25129;SDS011;13308;50.860;13.664;2023-04-24T07:37:37;0.50;;;0.50;;
25129;SDS011;13308;50.860;13.664;2023-04-24T07:40:03;1.75;;;0.60;;
25129;SDS011;13308;50.860;13.664;2023-04-24T07:42:28;5.10;;;0.80;;
25129;SDS011;13308;50.860;13.664;2023-04-24T07:44:55;2.05;;;0.70;;
25129;SDS011;13308;50.860;13.664;2023-04-24T07:47:20;1.40;;;0.70;;
25129;SDS011;13308;50.860;13.664;2023-04-24T07:49:46;1.40;;;0.85;;
25129;SDS011;13308;50.860;13.664;2023-04-24T07:52:11;0.73;;;0.70;;
25129;SDS011;13308;50.860;13.664;2023-04-24T07:54:36;0.68;;;0.43;;
25129;SDS011;13308;50.860;13.664;2023-04-24T07:57:02;2.08;;;0.50;;
25129;SDS011;13308;50.860;13.664;2023-04-24T07:59:27;0.68;;;0.68;;
25129;SDS011;13308;50.860;13.664;2023-04-24T08:01:53;0.95;;;0.63;;
25129;SDS011;13308;50.860;13.664;2023-04-24T08:04:19;0.98;;;0.60;;
25129;SDS011;13308;50.860;13.664;2023-04-24T08:06:44;1.15;;;0.50;;
25129;SDS011;13308;50.860;13.664;2023-04-24T08:09:09;4.93;;;0.60;;
25129;SDS011;13308;50.860;13.664;2023-04-24T08:11:35;0.70;;;0.70;;
25129;SDS011;13308;50.860;13.664;2023-04-24T08:14:00;0.45;;;0.45;;
25129;SDS011;13308;50.860;13.664;2023-04-24T08:16:26;0.57;;;0.57;;
25129;SDS011;13308;50.860;13.664;2023-04-24T08:18:51;1.00;;;0.85;;
25129;SDS011;13308;50.860;13.664;2023-04-24T08:21:17;0.65;;;0.60;;
25129;SDS011;13308;50.860;13.664;2023-04-24T08:23:44;0.70;;;0.40;;
25129;SDS011;13308;50.860;13.664;2023-04-24T08:26:10;0.65;;;0.60;;
25129;SDS011;13308;50.860;13.664;2023-04-24T08:28:36;1.40;;;0.50;;
25129;SDS011;13308;50.860;13.664;2023-04-24T08:31:01;0.90;;;0.60;;
25129;SDS011;13308;50.860;13.664;2023-04-24T08:33:27;0.68;;;0.68;;
25129;SDS011;13308;50.860;13.664;2023-04-24T08:35:57;1.38;;;0.60;;
25129;SDS011;13308;50.860;13.664;2023-04-24T08:38:23;0.98;;;0.85;;
25129;SDS011;13308;50.860;13.664;2023-04-24T08:40:48;0.70;;;0.60;;
25129;SDS011;13308;50.860;13.664;2023-04-24T08:43:14;1.70;;;0.98;;
25129;SDS011;13308;50.860;13.664;2023-04-24T08:45:41;0.63;;;0.60;;
25129;SDS011;13308;50.860;13.664;2023-04-24T08:48:06;0.98;;;0.80;;
25129;SDS011;13308;50.860;13.664;2023-04-24T08:50:32;0.65;;;0.60;;
25129;SDS011;13308;50.860;13.664;2023-04-24T08:52:58;1.17;;;0.70;;
25129;SDS011;13308;50.860;13.664;2023-04-24T08:55:24;1.23;;;0.60;;
25129;SDS011;13308;50.860;13.664;2023-04-24T08:57:50;0.60;;;0.60;;
25129;SDS011;13308;50.860;13.664;2023-04-24T09:00:21;0.70;;;0.70;;
25129;SDS011;13308;50.860;13.664;2023-04-24T09:02:46;1.63;;;0.63;;
25129;SDS011;13308;50.860;13.664;2023-04-24T09:05:15;1.75;;;0.70;;
25129;SDS011;13308;50.860;13.664;2023-04-24T09:07:42;1.02;;;0.70;;
25129;SDS011;13308;50.860;13.664;2023-04-24T09:10:11;1.00;;;0.77;;
25129;SDS011;13308;50.860;13.664;2023-04-24T09:12:37;0.60;;;0.60;;
25129;SDS011;13308;50.860;13.664;2023-04-24T09:15:03;0.60;;;0.60;;
25129;SDS011;13308;50.860;13.664;2023-04-24T09:17:30;0.65;;;0.50;;
25129;SDS011;13308;50.860;13.664;2023-04-24T09:19:56;0.70;;;0.68;;
25129;SDS011;13308;50.860;13.664;2023-04-24T09:22:21;0.65;;;0.57;;
25129;SDS011;13308;50.860;13.664;2023-04-24T09:24:46;0.55;;;0.55;;
25129;SDS011;13308;50.860;13.664;2023-04-24T09:27:12;1.10;;;0.63;;
25129;SDS011;13308;50.860;13.664;2023-04-24T09:29:38;0.82;;;0.50;;
25129;SDS011;13308;50.860;13.664;2023-04-24T09:32:17;0.73;;;0.50;;
25129;SDS011;13308;50.860;13.664;2023-04-24T09:34:47;1.17;;;0.65;;
25129;SDS011;13308;50.860;13.664;2023-04-24T09:37:28;0.70;;;0.65;;
25129;SDS011;13308;50.860;13.664;2023-04-24T09:40:07;0.68;;;0.50;;
25129;SDS011;13308;50.860;13.664;2023-04-24T09:42:51;2.20;;;0.90;;
25129;SDS011;13308;50.860;13.664;2023-04-24T09:45:18;0.60;;;0.60;;
25129;SDS011;13308;50.860;13.664;2023-04-24T09:47:43;1.17;;;0.57;;
25129;SDS011;13308;50.860;13.664;2023-04-24T09:50:16;0.50;;;0.50;;
25129;SDS011;13308;50.860;13.664;2023-04-24T09:55:48;0.60;;;0.60;;
25129;SDS011;13308;50.860;13.664;2023-04-24T09:58:15;0.50;;;0.50;;
25129;SDS011;13308;50.860;13.664;2023-04-24T10:00:40;1.10;;;0.60;;
25129;SDS011;13308;50.860;13.664;2023-04-24T10:03:06;1.00;;;0.70;;
25129;SDS011;13308;50.860;13.664;2023-04-24T10:05:32;0.88;;;0.70;;
25129;SDS011;13308;50.860;13.664;2023-04-24T10:08:05;0.47;;;0.47;;
25129;SDS011;13308;50.860;13.664;2023-04-24T10:10:33;0.70;;;0.40;;
25129;SDS011;13308;50.860;13.664;2023-04-24T10:12:59;0.63;;;0.60;;
25129;SDS011;13308;50.860;13.664;2023-04-24T10:15:25;0.60;;;0.60;;
25129;SDS011;13308;50.860;13.664;2023-04-24T10:17:51;0.77;;;0.60;;
25129;SDS011;13308;50.860;13.664;2023-04-24T10:20:23;0.50;;;0.50;;
25129;SDS011;13308;50.860;13.664;2023-04-24T10:22:51;4.35;;;1.15;;
25129;SDS011;13308;50.860;13.664;2023-04-24T10:25:22;1.58;;;0.68;;
25129;SDS011;13308;50.860;13.664;2023-04-24T10:27:52;0.50;;;0.50;;
25129;SDS011;13308;50.860;13.664;2023-04-24T10:30:22;1.75;;;0.60;;
25129;SDS011;13308;50.860;13.664;2023-04-24T10:32:48;0.88;;;0.63;;
25129;SDS011;13308;50.860;13.664;2023-04-24T10:35:14;0.47;;;0.47;;
25129;SDS011;13308;50.860;13.664;2023-04-24T10:37:42;0.77;;;0.65;;
25129;SDS011;13308;50.860;13.664;2023-04-24T10:40:17;0.70;;;0.60;;
25129;SDS011;13308;50.860;13.664;2023-04-24T10:42:47;1.35;;;0.60;;
25129;SDS011;13308;50.860;13.664;2023-04-24T10:45:17;1.25;;;0.70;;
25129;SDS011;13308;50.860;13.664;2023-04-24T10:47:50;0.77;;;0.70;;
25129;SDS011;13308;50.860;13.664;2023-04-24T10:50:17;0.55;;;0.55;;
25129;SDS011;13308;50.860;13.664;2023-04-24T10:52:48;2.03;;;0.50;;
25129;SDS011;13308;50.860;13.664;2023-04-24T10:58:08;0.70;;;0.70;;
25129;SDS011;13308;50.860;13.664;2023-04-24T11:00:36;1.20;;;1.10;;
25129;SDS011;13308;50.860;13.664;2023-04-24T11:03:04;0.90;;;0.90;;
25129;SDS011;13308;50.860;13.664;2023-04-24T11:05:48;0.70;;;0.70;;
25129;SDS011;13308;50.860;13.664;2023-04-24T11:08:16;2.15;;;0.90;;
25129;SDS011;13308;50.860;13.664;2023-04-24T11:11:21;0.90;;;0.85;;
25129;SDS011;13308;50.860;13.664;2023-04-24T11:16:20;1.10;;;0.70;;
25129;SDS011;13308;50.860;13.664;2023-04-24T11:18:51;3.30;;;0.90;;
25129;SDS011;13308;50.860;13.664;2023-04-24T11:21:24;1.77;;;0.88;;
25129;SDS011;13308;50.860;13.664;2023-04-24T11:23:50;1.05;;;0.98;;
25129;SDS011;13308;50.860;13.664;2023-04-24T11:26:19;1.55;;;0.88;;
25129;SDS011;13308;50.860;13.664;2023-04-24T11:28:49;1.05;;;0.95;;
25129;SDS011;13308;50.860;13.664;2023-04-24T11:34:10;0.77;;;0.77;;
25129;SDS011;13308;50.860;13.664;2023-04-24T11:36:38;3.92;;;0.80;;
25129;SDS011;13308;50.860;13.664;2023-04-24T11:39:05;1.20;;;1.02;;
25129;SDS011;13308;50.860;13.664;2023-04-24T11:41:31;0.90;;;0.90;;
25129;SDS011;13308;50.860;13.664;2023-04-24T11:43:57;1.77;;;1.00;;
25129;SDS011;13308;50.860;13.664;2023-04-24T11:46:22;2.65;;;0.90;;
25129;SDS011;13308;50.860;13.664;2023-04-24T11:48:48;2.72;;;1.05;;
25129;SDS011;13308;50.860;13.664;2023-04-24T11:51:14;1.27;;;1.02;;
25129;SDS011;13308;50.860;13.664;2023-04-24T11:53:39;1.73;;;0.90;;
25129;SDS011;13308;50.860;13.664;2023-04-24T11:56:05;2.78;;;1.10;;
25129;SDS011;13308;50.860;13.664;2023-04-24T11:58:37;0.82;;;0.82;;
25129;SDS011;13308;50.860;13.664;2023-04-24T12:01:04;0.98;;;0.90;;
25129;SDS011;13308;50.860;13.664;2023-04-24T12:03:30;1.33;;;0.80;;
25129;SDS011;13308;50.860;13.664;2023-04-24T12:06:05;1.60;;;0.80;;
25129;SDS011;13308;50.860;13.664;2023-04-24T12:08:32;1.83;;;0.93;;
25129;SDS011;13308;50.860;13.664;2023-04-24T12:10:59;3.33;;;0.88;;
25129;SDS011;13308;50.860;13.664;2023-04-24T12:13:25;1.45;;;1.00;;
25129;SDS011;13308;50.860;13.664;2023-04-24T12:15:51;1.02;;;0.93;;
25129;SDS011;13308;50.860;13.664;2023-04-24T12:18:16;0.80;;;0.80;;
25129;SDS011;13308;50.860;13.664;2023-04-24T12:20:42;0.80;;;0.80;;
25129;SDS011;13308;50.860;13.664;2023-04-24T12:23:07;0.80;;;0.80;;
25129;SDS011;13308;50.860;13.664;2023-04-24T12:25:33;0.80;;;0.70;;
25129;SDS011;13308;50.860;13.664;2023-04-24T12:30:34;0.95;;;0.95;;
25129;SDS011;13308;50.860;13.664;2023-04-24T12:33:03;1.02;;;0.80;;
25129;SDS011;13308;50.860;13.664;2023-04-24T12:35:29;1.80;;;0.80;;
25129;SDS011;13308;50.860;13.664;2023-04-24T12:38:04;1.20;;;1.08;;
25129;SDS011;13308;50.860;13.664;2023-04-24T12:40:33;1.15;;;1.05;;
25129;SDS011;13308;50.860;13.664;2023-04-24T12:42:58;1.10;;;1.00;;
25129;SDS011;13308;50.860;13.664;2023-04-24T12:45:24;2.30;;;1.63;;
25129;SDS011;13308;50.860;13.664;2023-04-24T12:47:50;1.33;;;1.20;;
25129;SDS011;13308;50.860;13.664;2023-04-24T12:50:15;2.00;;;1.10;;
25129;SDS011;13308;50.860;13.664;2023-04-24T12:52:41;1.55;;;1.08;;
25129;SDS011;13308;50.860;13.664;2023-04-24T12:55:08;0.80;;;0.80;;
25129;SDS011;13308;50.860;13.664;2023-04-24T12:57:35;1.50;;;1.40;;
25129;SDS011;13308;50.860;13.664;2023-04-24T13:00:02;0.85;;;0.85;;
25129;SDS011;13308;50.860;13.664;2023-04-24T13:02:29;1.90;;;0.90;;
25129;SDS011;13308;50.860;13.664;2023-04-24T13:04:56;1.27;;;1.00;;
25129;SDS011;13308;50.860;13.664;2023-04-24T13:07:22;2.33;;;1.25;;
25129;SDS011;13308;50.860;13.664;2023-04-24T13:09:47;1.40;;;1.30;;
25129;SDS011;13308;50.860;13.664;2023-04-24T13:12:14;2.03;;;1.08;;
25129;SDS011;13308;50.860;13.664;2023-04-24T13:14:39;1.20;;;1.10;;
25129;SDS011;13308;50.860;13.664;2023-04-24T13:17:05;1.33;;;1.23;;
25129;SDS011;13308;50.860;13.664;2023-04-24T13:19:35;1.48;;;1.20;;
25129;SDS011;13308;50.860;13.664;2023-04-24T13:22:04;1.13;;;1.02;;
25129;SDS011;13308;50.860;13.664;2023-04-24T13:24:29;1.10;;;1.00;;
25129;SDS011;13308;50.860;13.664;2023-04-24T13:26:56;2.45;;;0.95;;
25129;SDS011;13308;50.860;13.664;2023-04-24T13:29:21;1.33;;;1.23;;
25129;SDS011;13308;50.860;13.664;2023-04-24T13:31:47;1.50;;;1.40;;
25129;SDS011;13308;50.860;13.664;2023-04-24T13:34:14;1.52;;;1.42;;
25129;SDS011;13308;50.860;13.664;2023-04-24T13:36:40;1.30;;;1.20;;
25129;SDS011;13308;50.860;13.664;2023-04-24T13:39:05;1.30;;;1.20;;
25129;SDS011;13308;50.860;13.664;2023-04-24T13:41:32;1.30;;;1.20;;
25129;SDS011;13308;50.860;13.664;2023-04-24T13:43:57;1.13;;;1.08;;
25129;SDS011;13308;50.860;13.664;2023-04-24T13:46:23;1.70;;;1.40;;
25129;SDS011;13308;50.860;13.664;2023-04-24T13:48:48;2.92;;;1.40;;
25129;SDS011;13308;50.860;13.664;2023-04-24T13:51:13;1.98;;;1.70;;
25129;SDS011;13308;50.860;13.664;2023-04-24T13:53:39;1.30;;;1.20;;
25129;SDS011;13308;50.860;13.664;2023-04-24T13:56:04;1.42;;;1.30;;
25129;SDS011;13308;50.860;13.664;2023-04-24T13:58:31;1.60;;;1.40;;
25129;SDS011;13308;50.860;13.664;2023-04-24T14:00:57;1.20;;;1.10;;
25129;SDS011;13308;50.860;13.664;2023-04-24T14:03:22;3.33;;;0.95;;
25129;SDS011;13308;50.860;13.664;2023-04-24T14:05:48;1.50;;;1.35;;
25129;SDS011;13308;50.860;13.664;2023-04-24T14:08:13;1.30;;;1.20;;
25129;SDS011;13308;50.860;13.664;2023-04-24T14:10:38;1.38;;;1.27;;
25129;SDS011;13308;50.860;13.664;2023-04-24T14:13:04;1.55;;;1.45;;
25129;SDS011;13308;50.860;13.664;2023-04-24T14:15:29;1.65;;;1.42;;
25129;SDS011;13308;50.860;13.664;2023-04-24T14:17:54;1.08;;;0.98;;
25129;SDS011;13308;50.860;13.664;2023-04-24T14:20:20;1.13;;;1.02;;
25129;SDS011;13308;50.860;13.664;2023-04-24T14:22:45;3.70;;;1.35;;
25129;SDS011;13308;50.860;13.664;2023-04-24T14:25:11;1.35;;;1.25;;
25129;SDS011;13308;50.860;13.664;2023-04-24T14:27:36;1.90;;;1.67;;
25129;SDS011;13308;50.860;13.664;2023-04-24T14:30:01;1.38;;;1.27;;
25129;SDS011;13308;50.860;13.664;2023-04-24T14:32:27;1.55;;;1.20;;
25129;SDS011;13308;50.860;13.664;2023-04-24T14:34:53;1.67;;;1.55;;
25129;SDS011;13308;50.860;13.664;2023-04-24T14:37:18;2.28;;;1.25;;
25129;SDS011;13308;50.860;13.664;2023-04-24T14:39:44;1.67;;;1.58;;
25129;SDS011;13308;50.860;13.664;2023-04-24T14:42:10;1.33;;;1.23;;
25129;SDS011;13308;50.860;13.664;2023-04-24T14:44:35;1.30;;;1.20;;
25129;SDS011;13308;50.860;13.664;2023-04-24T14:47:01;1.40;;;1.30;;
25129;SDS011;13308;50.860;13.664;2023-04-24T14:49:26;1.77;;;1.23;;
25129;SDS011;13308;50.860;13.664;2023-04-24T14:51:51;1.42;;;1.33;;
25129;SDS011;13308;50.860;13.664;2023-04-24T14:54:17;1.38;;;1.27;;
25129;SDS011;13308;50.860;13.664;2023-04-24T14:56:42;1.85;;;1.38;;
25129;SDS011;13308;50.860;13.664;2023-04-24T14:59:09;1.38;;;1.27;;
25129;SDS011;13308;50.860;13.664;2023-04-24T15:01:35;6.15;;;5.40;;
25129;SDS011;13308;50.860;13.664;2023-04-24T15:04:00;1.80;;;1.48;;
25129;SDS011;13308;50.860;13.664;2023-04-24T15:06:26;2.80;;;2.40;;
25129;SDS011;13308;50.860;13.664;2023-04-24T15:08:51;1.48;;;1.38;;
25129;SDS011;13308;50.860;13.664;2023-04-24T15:11:17;4.03;;;1.45;;
25129;SDS011;13308;50.860;13.664;2023-04-24T15:13:43;2.13;;;1.40;;
25129;SDS011;13308;50.860;13.664;2023-04-24T15:16:10;1.92;;;1.83;;
25129;SDS011;13308;50.860;13.664;2023-04-24T15:18:35;1.30;;;1.20;;
25129;SDS011;13308;50.860;13.664;2023-04-24T15:21:01;1.08;;;0.98;;
25129;SDS011;13308;50.860;13.664;2023-04-24T15:23:26;1.50;;;1.40;;
25129;SDS011;13308;50.860;13.664;2023-04-24T15:25:51;1.55;;;1.42;;
25129;SDS011;13308;50.860;13.664;2023-04-24T15:28:17;1.42;;;1.33;;
25129;SDS011;13308;50.860;13.664;2023-04-24T15:30:42;1.50;;;1.40;;
25129;SDS011;13308;50.860;13.664;2023-04-24T15:33:08;1.48;;;1.38;;
25129;SDS011;13308;50.860;13.664;2023-04-24T15:35:33;1.33;;;1.23;;
25129;SDS011;13308;50.860;13.664;2023-04-24T15:37:59;1.60;;;1.50;;
25129;SDS011;13308;50.860;13.664;2023-04-24T15:40:24;1.63;;;1.52;;
25129;SDS011;13308;50.860;13.664;2023-04-24T15:42:50;1.73;;;1.63;;
25129;SDS011;13308;50.860;13.664;2023-04-24T15:45:15;2.10;;;1.90;;
25129;SDS011;13308;50.860;13.664;2023-04-24T15:47:41;2.28;;;1.90;;
25129;SDS011;13308;50.860;13.664;2023-04-24T15:50:06;1.77;;;1.67;;
25129;SDS011;13308;50.860;13.664;2023-04-24T15:52:35;1.95;;;1.75;;
25129;SDS011;13308;50.860;13.664;2023-04-24T15:55:02;2.80;;;2.10;;
25129;SDS011;13308;50.860;13.664;2023-04-24T15:57:28;1.70;;;1.60;;
25129;SDS011;13308;50.860;13.664;2023-04-24T15:59:53;2.22;;;2.05;;
25129;SDS011;13308;50.860;13.664;2023-04-24T16:02:18;2.47;;;1.80;;
25129;SDS011;13308;50.860;13.664;2023-04-24T16:04:48;2.28;;;2.08;;
25129;SDS011;13308;50.860;13.664;2023-04-24T16:07:14;2.20;;;2.00;;
25129;SDS011;13308;50.860;13.664;2023-04-24T16:09:42;2.22;;;2.05;;
25129;SDS011;13308;50.860;13.664;2023-04-24T16:12:08;2.53;;;2.33;;
25129;SDS011;13308;50.860;13.664;2023-04-24T16:14:34;2.40;;;2.20;;
25129;SDS011;13308;50.860;13.664;2023-04-24T16:17:03;4.22;;;2.47;;
25129;SDS011;13308;50.860;13.664;2023-04-24T16:19:29;2.30;;;2.10;;
25129;SDS011;13308;50.860;13.664;2023-04-24T16:21:55;2.80;;;2.60;;
25129;SDS011;13308;50.860;13.664;2023-04-24T16:24:21;2.70;;;2.45;;
25129;SDS011;13308;50.860;13.664;2023-04-24T16:26:48;1.85;;;1.75;;
25129;SDS011;13308;50.860;13.664;2023-04-24T16:29:14;1.73;;;1.63;;
25129;SDS011;13308;50.860;13.664;2023-04-24T16:31:40;2.40;;;2.05;;
25129;SDS011;13308;50.860;13.664;2023-04-24T16:34:05;2.95;;;1.70;;
25129;SDS011;13308;50.860;13.664;2023-04-24T16:36:31;1.35;;;1.25;;
25129;SDS011;13308;50.860;13.664;2023-04-24T16:38:56;2.05;;;1.85;;
25129;SDS011;13308;50.860;13.664;2023-04-24T16:41:22;2.58;;;1.70;;
25129;SDS011;13308;50.860;13.664;2023-04-24T16:43:47;1.35;;;1.25;;
25129;SDS011;13308;50.860;13.664;2023-04-24T16:46:12;1.58;;;1.48;;
25129;SDS011;13308;50.860;13.664;2023-04-24T16:48:38;1.45;;;1.35;;
25129;SDS011;13308;50.860;13.664;2023-04-24T16:51:03;1.60;;;1.50;;
25129;SDS011;13308;50.860;13.664;2023-04-24T16:53:28;1.50;;;1.40;;
25129;SDS011;13308;50.860;13.664;2023-04-24T16:55:54;1.45;;;1.35;;
25129;SDS011;13308;50.860;13.664;2023-04-24T16:58:19;2.00;;;1.70;;
25129;SDS011;13308;50.860;13.664;2023-04-24T17:00:45;1.60;;;1.50;;
25129;SDS011;13308;50.860;13.664;2023-04-24T17:03:12;1.48;;;1.38;;
25129;SDS011;13308;50.860;13.664;2023-04-24T17:05:37;1.42;;;1.33;;
25129;SDS011;13308;50.860;13.664;2023-04-24T17:08:03;1.00;;;1.00;;
25129;SDS011;13308;50.860;13.664;2023-04-24T17:10:28;1.58;;;1.45;;
25129;SDS011;13308;50.860;13.664;2023-04-24T17:12:53;2.20;;;2.00;;
25129;SDS011;13308;50.860;13.664;2023-04-24T17:15:19;1.27;;;1.17;;
25129;SDS011;13308;50.860;13.664;2023-04-24T17:17:44;1.75;;;1.48;;
25129;SDS011;13308;50.860;13.664;2023-04-24T17:20:10;1.40;;;1.30;;
25129;SDS011;13308;50.860;13.664;2023-04-24T17:22:36;1.92;;;1.08;;
25129;SDS011;13308;50.860;13.664;2023-04-24T17:25:02;1.20;;;1.10;;
25129;SDS011;13308;50.860;13.664;2023-04-24T17:27:27;3.67;;;1.40;;
25129;SDS011;13308;50.860;13.664;2023-04-24T17:29:52;1.50;;;1.40;;
25129;SDS011;13308;50.860;13.664;2023-04-24T17:32:18;1.45;;;1.33;;
25129;SDS011;13308;50.860;13.664;2023-04-24T17:34:43;2.63;;;1.40;;
25129;SDS011;13308;50.860;13.664;2023-04-24T17:37:08;1.67;;;1.58;;
25129;SDS011;13308;50.860;13.664;2023-04-24T17:39:34;1.33;;;1.20;;
25129;SDS011;13308;50.860;13.664;2023-04-24T17:41:59;2.20;;;1.42;;
25129;SDS011;13308;50.860;13.664;2023-04-24T17:44:26;1.33;;;1.23;;
25129;SDS011;13308;50.860;13.664;2023-04-24T17:46:51;1.10;;;1.10;;
25129;SDS011;13308;50.860;13.664;2023-04-24T17:49:16;1.10;;;1.00;;
25129;SDS011;13308;50.860;13.664;2023-04-24T17:51:42;0.98;;;0.90;;
25129;SDS011;13308;50.860;13.664;2023-04-24T17:54:07;0.80;;;0.80;;
25129;SDS011;13308;50.860;13.664;2023-04-24T17:56:32;1.13;;;1.02;;
25129;SDS011;13308;50.860;13.664;2023-04-24T17:58:58;0.93;;;0.77;;
25129;SDS011;13308;50.860;13.664;2023-04-24T18:01:23;0.90;;;0.85;;
25129;SDS011;13308;50.860;13.664;2023-04-24T18:03:48;0.50;;;0.50;;
25129;SDS011;13308;50.860;13.664;2023-04-24T18:06:14;0.70;;;0.70;;
25129;SDS011;13308;50.860;13.664;2023-04-24T18:08:42;0.63;;;0.63;;
25129;SDS011;13308;50.860;13.664;2023-04-24T18:11:07;0.90;;;0.70;;
25129;SDS011;13308;50.860;13.664;2023-04-24T18:13:32;0.70;;;0.70;;
25129;SDS011;13308;50.860;13.664;2023-04-24T18:15:58;2.72;;;0.65;;
25129;SDS011;13308;50.860;13.664;2023-04-24T18:18:23;1.10;;;1.00;;
25129;SDS011;13308;50.860;13.664;2023-04-24T18:20:48;1.17;;;1.08;;
25129;SDS011;13308;50.860;13.664;2023-04-24T18:23:14;1.08;;;1.05;;
25129;SDS011;13308;50.860;13.664;2023-04-24T18:25:39;1.42;;;1.02;;
25129;SDS011;13308;50.860;13.664;2023-04-24T18:28:05;1.10;;;1.00;;
25129;SDS011;13308;50.860;13.664;2023-04-24T18:30:30;1.67;;;1.10;;
25129;SDS011;13308;50.860;13.664;2023-04-24T18:32:56;1.40;;;1.30;;
25129;SDS011;13308;50.860;13.664;2023-04-24T18:35:22;1.40;;;1.30;;
25129;SDS011;13308;50.860;13.664;2023-04-24T18:37:47;1.88;;;1.77;;
25129;SDS011;13308;50.860;13.664;2023-04-24T18:40:13;1.73;;;1.63;;
